KGSO/GSO METAR and TAF weather

Enter ICAO airport designator
Station Type Date Time Source
KGSO METAR 2020/11/25 22:54 UTC NOAA

KGSO 252254Z 00000KT 10SM OVC070 13/09 A3017 RMK AO2 SLP217 T01330089


Station Type Date Time Source
KGSO Decoded METAR 2020/11/25 22:54 UTC NOAA

PIEDMONT TRIAD INTERNATIONAL AIRPORT , NC, United States (KGSO) 36-06N 079-57W 275M
Nov 25, 2020 - 05:54 PM EST / 2020.11.25 2254 UTC
Wind: Calm:0
Visibility: 10 mile(s):0
Sky conditions: overcast
Temperature: 55.9 F (13.3 C)
Dew Point: 48.0 F (8.9 C)
Relative Humidity: 74%
Pressure (altimeter): 30.17 in. Hg (1021 hPa)
ob: KGSO 252254Z 00000KT 10SM OVC070 13/09 A3017 RMK AO2 SLP217 T01330089
cycle: 23

Station Type Date Time Source
KGSO TAF 2020/11/25 18:40 UTC NOAA

TAF KGSO 251738Z 2518/2618 22006KT P6SM FEW045 BKN070 OVC250
FM252100 18006KT P6SM SCT025 BKN040
TEMPO 2602/2605 5SM -SHRA BKN015
FM260500 20006KT 4SM -SHRA BR BKN005 OVC012 WS020/20038KT
TEMPO 2608/2612 2SM SHRA BR
FM261200 22009KT 6SM BR VCSH BKN005 OVC012

Example: see airport list